Terminal Aerodrome Forecast
Issued by NWS

Home | Current Version | Previous Version | Text Only | Print | Product List | Glossary Off
Versions: 1 2 3 4 5 6 7 8 9 10 11 12 13 14 15

581
FTUS43 KFGF 212338
TAFBJI
TAF
KBJI 212338Z 2200/2224 12005KT P6SM VCTS SCT050CB
     FM220200 12005KT P6SM BKN150
     FM220900 VRB03KT P6SM BKN120
     FM221500 25008KT P6SM BKN080
     FM221600 27009KT P6SM SCT140
     FM221700 30010KT P6SM SCT200=

USA.gov is the U.S. government's official web portal to all federal, state and local government web resources and services.